ITY576 LIRF-LSGG
Flight info
| Callsign | ITY576 |
|---|---|
| Flight time | 1h 17m |
| Altitude | 38000 |
| Route | NEMBO DCT GOVGO DCT SPEZI DCT IDONA DCT TONDA DCT AOSTA/N0403F300 L615 BANKO |
| Aircraft | A320/M-SDE3FGHIRWY/LB1 |
Departure
| Time | 2026-05-07 06:16 |
|---|---|
| Airport | Rome–Fiumicino Leonardo da Vinci International Airport (LIRF) |
Arrival
| Time | 2026-05-07 07:34 |
|---|---|
| Airport | Geneva International Airport (LSGG) |
| Time | Latitude | Longitude | Altitude | Speed | Heading |
|---|---|---|---|---|---|
| 2026-05-07 05:28 | 41.79792 | 12.25527 | 16 ft | 0 kts | 115° |
| 2026-05-07 05:56 | 41.79792 | 12.25526 | 16 ft | 1 kts | 115° |
| 2026-05-07 05:56 | 41.79798 | 12.25510 | 14 ft | 2 kts | 115° |
| 2026-05-07 05:57 | 41.79805 | 12.25489 | 14 ft | 3 kts | 96° |
| 2026-05-07 05:57 | 41.79803 | 12.25465 | 15 ft | 3 kts | 58° |
| 2026-05-07 05:57 | 41.79791 | 12.25446 | 14 ft | 3 kts | 31° |
| 2026-05-07 05:57 | 41.79779 | 12.25437 | 14 ft | 1 kts | 25° |
| 2026-05-07 05:58 | 41.79776 | 12.25436 | 14 ft | 0 kts | 25° |
| 2026-05-07 06:00 | 41.79793 | 12.25446 | 15 ft | 6 kts | 25° |
| 2026-05-07 06:00 | 41.79862 | 12.25489 | 15 ft | 13 kts | 25° |
| 2026-05-07 06:01 | 41.79892 | 12.25509 | 15 ft | 0 kts | 25° |
| 2026-05-07 06:01 | 41.79908 | 12.25518 | 14 ft | 8 kts | 25° |
| 2026-05-07 06:01 | 41.79939 | 12.25554 | 14 ft | 5 kts | 75° |
| 2026-05-07 06:02 | 41.79925 | 12.25616 | 14 ft | 9 kts | 115° |
| 2026-05-07 06:02 | 41.79899 | 12.25689 | 14 ft | 8 kts | 115° |
| 2026-05-07 06:02 | 41.79894 | 12.25704 | 14 ft | 1 kts | 115° |
| 2026-05-07 06:02 | 41.79885 | 12.25728 | 14 ft | 0 kts | 115° |
| 2026-05-07 06:06 | 41.79883 | 12.25735 | 14 ft | 3 kts | 115° |
| 2026-05-07 06:06 | 41.79879 | 12.25745 | 14 ft | 0 kts | 115° |
| 2026-05-07 06:09 | 41.79876 | 12.25754 | 14 ft | 3 kts | 115° |
| 2026-05-07 06:10 | 41.79867 | 12.25779 | 16 ft | 3 kts | 115° |
| 2026-05-07 06:10 | 41.79868 | 12.25806 | 14 ft | 4 kts | 71° |
| 2026-05-07 06:10 | 41.79886 | 12.25830 | 14 ft | 3 kts | 32° |
| 2026-05-07 06:10 | 41.79903 | 12.25842 | 14 ft | 2 kts | 26° |
| 2026-05-07 06:11 | 41.79942 | 12.25866 | 16 ft | 12 kts | 25° |
| 2026-05-07 06:11 | 41.80046 | 12.25930 | 14 ft | 21 kts | 24° |
| 2026-05-07 06:11 | 41.80190 | 12.26018 | 14 ft | 19 kts | 23° |
| 2026-05-07 06:11 | 41.80318 | 12.26098 | 14 ft | 21 kts | 25° |
| 2026-05-07 06:12 | 41.80387 | 12.26248 | 15 ft | 20 kts | 69° |
| 2026-05-07 06:12 | 41.80423 | 12.26380 | 15 ft | 13 kts | 69° |
| 2026-05-07 06:12 | 41.80456 | 12.26500 | 15 ft | 14 kts | 69° |
| 2026-05-07 06:12 | 41.80494 | 12.26637 | 15 ft | 17 kts | 70° |
| 2026-05-07 06:13 | 41.80537 | 12.26793 | 16 ft | 19 kts | 70° |
| 2026-05-07 06:13 | 41.80585 | 12.26969 | 13 ft | 19 kts | 69° |
| 2026-05-07 06:13 | 41.80606 | 12.27028 | 13 ft | 6 kts | 49° |
| 2026-05-07 06:13 | 41.80678 | 12.27049 | 13 ft | 12 kts | 4° |
| 2026-05-07 06:14 | 41.80758 | 12.27056 | 13 ft | 11 kts | 360° |
| 2026-05-07 06:14 | 41.80827 | 12.27032 | 13 ft | 9 kts | 340° |
| 2026-05-07 06:14 | 41.80861 | 12.27016 | 13 ft | 3 kts | 340° |
| 2026-05-07 06:14 | 41.80872 | 12.27010 | 13 ft | 0 kts | 340° |
| 2026-05-07 06:15 | 41.80899 | 12.26997 | 13 ft | 10 kts | 340° |
| 2026-05-07 06:15 | 41.80957 | 12.26950 | 13 ft | 9 kts | 286° |
| 2026-05-07 06:15 | 41.80943 | 12.26871 | 13 ft | 11 kts | 250° |
| 2026-05-07 06:16 | 41.80862 | 12.26579 | 16 ft | 69 kts | 250° |
| 2026-05-07 06:16 | 41.80615 | 12.25681 | 18 ft | 133 kts | 249° |
| 2026-05-07 06:16 | 41.80239 | 12.24320 | 118 ft | 172 kts | 250° |
| 2026-05-07 06:16 | 41.79831 | 12.22823 | 808 ft | 171 kts | 250° |
| 2026-05-07 06:17 | 41.79408 | 12.21324 | 1456 ft | 177 kts | 255° |
| 2026-05-07 06:17 | 41.79270 | 12.19594 | 1806 ft | 199 kts | 269° |
| 2026-05-07 06:17 | 41.79232 | 12.17641 | 2160 ft | 220 kts | 269° |
| 2026-05-07 06:17 | 41.79179 | 12.15490 | 2569 ft | 242 kts | 268° |
| 2026-05-07 06:18 | 41.79118 | 12.13132 | 3164 ft | 260 kts | 268° |
| 2026-05-07 06:18 | 41.79055 | 12.10681 | 4053 ft | 266 kts | 268° |
| 2026-05-07 06:18 | 41.79005 | 12.08181 | 4989 ft | 270 kts | 269° |
| 2026-05-07 06:18 | 41.78992 | 12.05652 | 5913 ft | 274 kts | 269° |
| 2026-05-07 06:19 | 41.78993 | 12.03083 | 6818 ft | 278 kts | 270° |
| 2026-05-07 06:19 | 41.78999 | 12.00482 | 7716 ft | 281 kts | 269° |
| 2026-05-07 06:19 | 41.79002 | 11.97883 | 8601 ft | 284 kts | 269° |
| 2026-05-07 06:19 | 41.79001 | 11.95223 | 9480 ft | 287 kts | 269° |
| 2026-05-07 06:20 | 41.78997 | 11.92534 | 10332 ft | 292 kts | 269° |
| 2026-05-07 06:20 | 41.78988 | 11.89713 | 10690 ft | 313 kts | 269° |
| 2026-05-07 06:20 | 41.78977 | 11.86712 | 11373 ft | 321 kts | 269° |
| 2026-05-07 06:20 | 41.78967 | 11.83707 | 12211 ft | 323 kts | 269° |
| 2026-05-07 06:21 | 41.78955 | 11.80703 | 13076 ft | 323 kts | 268° |
| 2026-05-07 06:21 | 41.78943 | 11.77724 | 13843 ft | 326 kts | 268° |
| 2026-05-07 06:21 | 41.78932 | 11.74631 | 14580 ft | 329 kts | 268° |
| 2026-05-07 06:21 | 41.78918 | 11.71552 | 15292 ft | 332 kts | 268° |
| 2026-05-07 06:22 | 41.78902 | 11.68444 | 15989 ft | 335 kts | 267° |
| 2026-05-07 06:22 | 41.78871 | 11.62188 | 17318 ft | 340 kts | 267° |
| 2026-05-07 06:22 | 41.78930 | 11.59006 | 17950 ft | 345 kts | 273° |
| 2026-05-07 06:23 | 41.79463 | 11.55830 | 18534 ft | 354 kts | 285° |
| 2026-05-07 06:23 | 41.80556 | 11.52825 | 19137 ft | 364 kts | 299° |
| 2026-05-07 06:23 | 41.82157 | 11.50151 | 19730 ft | 371 kts | 307° |
| 2026-05-07 06:23 | 41.83880 | 11.47552 | 20332 ft | 374 kts | 307° |
| 2026-05-07 06:24 | 41.85603 | 11.44927 | 20916 ft | 377 kts | 307° |
| 2026-05-07 06:24 | 41.87334 | 11.42274 | 21489 ft | 379 kts | 306° |
| 2026-05-07 06:24 | 41.89077 | 11.39601 | 22059 ft | 382 kts | 307° |
| 2026-05-07 06:24 | 41.90831 | 11.36909 | 22605 ft | 385 kts | 307° |
| 2026-05-07 06:25 | 41.92600 | 11.34194 | 23129 ft | 388 kts | 307° |
| 2026-05-07 06:25 | 41.94381 | 11.31461 | 23644 ft | 390 kts | 307° |
| 2026-05-07 06:25 | 41.96176 | 11.28706 | 24148 ft | 393 kts | 307° |
| 2026-05-07 06:25 | 41.97979 | 11.25937 | 24627 ft | 395 kts | 307° |
| 2026-05-07 06:26 | 41.99798 | 11.23136 | 25090 ft | 398 kts | 306° |
| 2026-05-07 06:26 | 42.01625 | 11.20323 | 25547 ft | 401 kts | 306° |
| 2026-05-07 06:26 | 42.03463 | 11.17497 | 25978 ft | 403 kts | 306° |
| 2026-05-07 06:26 | 42.05317 | 11.14645 | 26401 ft | 405 kts | 306° |
| 2026-05-07 06:27 | 42.07172 | 11.11782 | 26821 ft | 407 kts | 305° |
| 2026-05-07 06:27 | 42.09039 | 11.08892 | 27230 ft | 409 kts | 305° |
| 2026-05-07 06:27 | 42.10910 | 11.05990 | 27616 ft | 411 kts | 305° |
| 2026-05-07 06:27 | 42.12787 | 11.03075 | 27998 ft | 413 kts | 305° |
| 2026-05-07 06:28 | 42.14674 | 11.00143 | 28379 ft | 415 kts | 305° |
| 2026-05-07 06:28 | 42.16567 | 10.97204 | 28744 ft | 416 kts | 305° |
| 2026-05-07 06:28 | 42.18475 | 10.94245 | 29105 ft | 418 kts | 305° |
| 2026-05-07 06:28 | 42.20388 | 10.91281 | 29456 ft | 419 kts | 305° |
| 2026-05-07 06:29 | 42.22301 | 10.88312 | 29785 ft | 421 kts | 304° |
| 2026-05-07 06:29 | 42.24223 | 10.85321 | 30113 ft | 422 kts | 304° |
| 2026-05-07 06:29 | 42.26153 | 10.82320 | 30420 ft | 424 kts | 305° |
| 2026-05-07 06:29 | 42.28304 | 10.79527 | 30711 ft | 434 kts | 315° |
| 2026-05-07 06:30 | 42.30824 | 10.77198 | 30994 ft | 444 kts | 324° |
| 2026-05-07 06:30 | 42.33661 | 10.75433 | 31262 ft | 454 kts | 333° |
| 2026-05-07 06:30 | 42.36647 | 10.73970 | 31499 ft | 457 kts | 333° |
| 2026-05-07 06:30 | 42.39637 | 10.72506 | 31799 ft | 457 kts | 333° |
| 2026-05-07 06:31 | 42.42626 | 10.71041 | 32152 ft | 456 kts | 333° |
| 2026-05-07 06:31 | 42.45567 | 10.69594 | 32498 ft | 455 kts | 333° |
| 2026-05-07 06:31 | 42.48536 | 10.68129 | 32842 ft | 454 kts | 333° |
| 2026-05-07 06:31 | 42.51504 | 10.66658 | 33184 ft | 453 kts | 333° |
| 2026-05-07 06:32 | 42.54463 | 10.65188 | 33486 ft | 453 kts | 333° |
| 2026-05-07 06:32 | 42.57422 | 10.63717 | 33796 ft | 453 kts | 333° |
| 2026-05-07 06:32 | 42.60375 | 10.62246 | 34116 ft | 452 kts | 333° |
| 2026-05-07 06:32 | 42.63326 | 10.60773 | 34432 ft | 451 kts | 333° |
| 2026-05-07 06:33 | 42.66272 | 10.59301 | 34749 ft | 450 kts | 333° |
| 2026-05-07 06:33 | 42.69209 | 10.57834 | 35046 ft | 449 kts | 333° |
| 2026-05-07 06:33 | 42.72142 | 10.56367 | 35314 ft | 449 kts | 333° |
| 2026-05-07 06:33 | 42.75073 | 10.54903 | 35584 ft | 448 kts | 333° |
| 2026-05-07 06:34 | 42.78000 | 10.53437 | 35846 ft | 448 kts | 333° |
| 2026-05-07 06:34 | 42.80926 | 10.51971 | 36102 ft | 447 kts | 333° |
| 2026-05-07 06:34 | 42.83841 | 10.50509 | 36343 ft | 446 kts | 333° |
| 2026-05-07 06:34 | 42.86755 | 10.49046 | 36551 ft | 446 kts | 333° |
| 2026-05-07 06:35 | 42.89668 | 10.47582 | 36769 ft | 446 kts | 333° |
| 2026-05-07 06:35 | 42.92574 | 10.46121 | 37051 ft | 443 kts | 333° |
| 2026-05-07 06:35 | 42.95459 | 10.44670 | 37347 ft | 440 kts | 333° |
| 2026-05-07 06:35 | 42.98328 | 10.43227 | 37602 ft | 439 kts | 333° |
| 2026-05-07 06:36 | 43.01189 | 10.41784 | 37803 ft | 438 kts | 333° |
| 2026-05-07 06:36 | 43.04052 | 10.40337 | 37965 ft | 438 kts | 333° |
| 2026-05-07 06:36 | 43.09772 | 10.37437 | 38016 ft | 438 kts | 333° |
| 2026-05-07 06:37 | 43.15427 | 10.34501 | 38019 ft | 434 kts | 328° |
| 2026-05-07 06:37 | 43.20382 | 10.30088 | 38028 ft | 419 kts | 311° |
| 2026-05-07 06:38 | 43.24772 | 10.24722 | 38026 ft | 421 kts | 311° |
| 2026-05-07 06:38 | 43.29150 | 10.19379 | 38028 ft | 421 kts | 311° |
| 2026-05-07 06:39 | 43.33500 | 10.14059 | 38028 ft | 421 kts | 311° |
| 2026-05-07 06:39 | 43.37872 | 10.08697 | 38021 ft | 421 kts | 311° |
| 2026-05-07 06:40 | 43.42244 | 10.03325 | 38013 ft | 422 kts | 311° |
| 2026-05-07 06:40 | 43.46619 | 9.97937 | 38010 ft | 423 kts | 311° |
| 2026-05-07 06:41 | 43.51002 | 9.92532 | 38012 ft | 424 kts | 311° |
| 2026-05-07 06:41 | 43.55396 | 9.87104 | 38019 ft | 424 kts | 311° |
| 2026-05-07 06:42 | 43.59790 | 9.81668 | 38020 ft | 424 kts | 311° |
| 2026-05-07 06:42 | 43.64188 | 9.76208 | 38017 ft | 425 kts | 311° |
| 2026-05-07 06:43 | 43.68580 | 9.70734 | 38017 ft | 425 kts | 310° |
| 2026-05-07 06:43 | 43.72981 | 9.65250 | 38017 ft | 426 kts | 310° |
| 2026-05-07 06:44 | 43.77450 | 9.59834 | 38019 ft | 431 kts | 316° |
| 2026-05-07 06:44 | 43.82628 | 9.55543 | 38020 ft | 438 kts | 323° |
| 2026-05-07 06:45 | 43.87947 | 9.51393 | 38023 ft | 439 kts | 323° |
| 2026-05-07 06:45 | 43.93259 | 9.47230 | 38025 ft | 438 kts | 323° |
| 2026-05-07 06:46 | 43.98539 | 9.42999 | 38022 ft | 435 kts | 319° |
| 2026-05-07 06:46 | 44.02577 | 9.38846 | 38019 ft | 431 kts | 316° |
| 2026-05-07 06:47 | 44.07371 | 9.33830 | 38006 ft | 431 kts | 316° |
| 2026-05-07 06:47 | 44.12145 | 9.28829 | 37998 ft | 432 kts | 316° |
| 2026-05-07 06:48 | 44.16947 | 9.23783 | 37991 ft | 433 kts | 316° |
| 2026-05-07 06:48 | 44.21753 | 9.18727 | 37987 ft | 433 kts | 316° |
| 2026-05-07 06:49 | 44.26565 | 9.13661 | 37982 ft | 433 kts | 316° |
| 2026-05-07 06:49 | 44.31370 | 9.08587 | 37981 ft | 433 kts | 316° |
| 2026-05-07 06:50 | 44.36184 | 9.03491 | 37980 ft | 433 kts | 316° |
| 2026-05-07 06:50 | 44.40994 | 8.98390 | 37982 ft | 434 kts | 316° |
| 2026-05-07 06:51 | 44.45795 | 8.93278 | 37987 ft | 434 kts | 316° |
| 2026-05-07 06:51 | 44.50587 | 8.88179 | 37986 ft | 435 kts | 316° |
| 2026-05-07 06:52 | 44.55403 | 8.83038 | 37990 ft | 435 kts | 316° |
| 2026-05-07 06:52 | 44.60218 | 8.77887 | 37994 ft | 436 kts | 316° |
| 2026-05-07 06:53 | 44.65037 | 8.72734 | 37995 ft | 435 kts | 316° |
| 2026-05-07 06:53 | 44.69851 | 8.67568 | 37997 ft | 435 kts | 316° |
| 2026-05-07 06:54 | 44.74662 | 8.62378 | 37983 ft | 435 kts | 316° |
| 2026-05-07 06:54 | 44.79468 | 8.57191 | 37982 ft | 434 kts | 316° |
| 2026-05-07 06:55 | 44.84234 | 8.52029 | 37983 ft | 435 kts | 316° |
| 2026-05-07 06:55 | 44.89028 | 8.46821 | 37988 ft | 435 kts | 316° |
| 2026-05-07 06:56 | 44.93831 | 8.41609 | 37992 ft | 436 kts | 316° |
| 2026-05-07 06:56 | 44.98639 | 8.36394 | 37993 ft | 436 kts | 316° |
| 2026-05-07 06:57 | 45.03445 | 8.31158 | 37997 ft | 436 kts | 316° |
| 2026-05-07 06:57 | 45.08235 | 8.25915 | 37992 ft | 435 kts | 316° |
| 2026-05-07 06:58 | 45.12969 | 8.20583 | 38002 ft | 433 kts | 314° |
| 2026-05-07 06:58 | 45.17457 | 8.14931 | 38002 ft | 430 kts | 312° |
| 2026-05-07 06:59 | 45.21825 | 8.09205 | 37999 ft | 429 kts | 312° |
| 2026-05-07 06:59 | 45.26256 | 8.03479 | 37993 ft | 430 kts | 313° |
| 2026-05-07 07:00 | 45.30710 | 7.97801 | 37998 ft | 430 kts | 313° |
| 2026-05-07 07:00 | 45.35174 | 7.92125 | 38005 ft | 430 kts | 313° |
| 2026-05-07 07:01 | 45.39630 | 7.86444 | 37934 ft | 431 kts | 313° |
| 2026-05-07 07:01 | 45.41830 | 7.83620 | 37681 ft | 430 kts | 313° |
| 2026-05-07 07:01 | 45.44053 | 7.80758 | 37428 ft | 430 kts | 313° |
| 2026-05-07 07:02 | 45.46266 | 7.77902 | 37177 ft | 430 kts | 313° |
| 2026-05-07 07:02 | 45.48479 | 7.75047 | 36932 ft | 429 kts | 313° |
| 2026-05-07 07:02 | 45.50697 | 7.72187 | 36691 ft | 429 kts | 313° |
| 2026-05-07 07:02 | 45.52912 | 7.69331 | 36433 ft | 429 kts | 313° |
| 2026-05-07 07:03 | 45.55125 | 7.66477 | 36183 ft | 428 kts | 313° |
| 2026-05-07 07:03 | 45.57336 | 7.63624 | 35934 ft | 428 kts | 313° |
| 2026-05-07 07:03 | 45.59531 | 7.60787 | 35509 ft | 424 kts | 313° |
| 2026-05-07 07:03 | 45.61711 | 7.57964 | 35001 ft | 421 kts | 313° |
| 2026-05-07 07:04 | 45.63873 | 7.55159 | 34493 ft | 418 kts | 313° |
| 2026-05-07 07:04 | 45.66020 | 7.52369 | 33982 ft | 416 kts | 313° |
| 2026-05-07 07:04 | 45.68153 | 7.49596 | 33473 ft | 414 kts | 313° |
| 2026-05-07 07:04 | 45.70274 | 7.46834 | 32968 ft | 411 kts | 313° |
| 2026-05-07 07:05 | 45.72377 | 7.44092 | 32479 ft | 408 kts | 313° |
| 2026-05-07 07:05 | 45.74464 | 7.41365 | 31972 ft | 405 kts | 313° |
| 2026-05-07 07:05 | 45.76521 | 7.38634 | 31487 ft | 400 kts | 309° |
| 2026-05-07 07:05 | 45.78212 | 7.35592 | 31010 ft | 391 kts | 297° |
| 2026-05-07 07:06 | 45.79426 | 7.32154 | 30517 ft | 383 kts | 287° |
| 2026-05-07 07:06 | 45.80123 | 7.28504 | 30052 ft | 376 kts | 276° |
| 2026-05-07 07:06 | 45.80441 | 7.24811 | 29600 ft | 371 kts | 274° |
| 2026-05-07 07:06 | 45.80737 | 7.21160 | 29162 ft | 367 kts | 274° |
| 2026-05-07 07:07 | 45.81029 | 7.17543 | 28736 ft | 363 kts | 274° |
| 2026-05-07 07:07 | 45.81318 | 7.13955 | 28307 ft | 359 kts | 274° |
| 2026-05-07 07:07 | 45.81597 | 7.10462 | 27884 ft | 356 kts | 274° |
| 2026-05-07 07:07 | 45.82041 | 7.06974 | 27443 ft | 356 kts | 284° |
| 2026-05-07 07:08 | 45.82972 | 7.03642 | 27011 ft | 356 kts | 295° |
| 2026-05-07 07:08 | 45.84282 | 7.00686 | 26575 ft | 357 kts | 302° |
| 2026-05-07 07:08 | 45.85684 | 6.97768 | 26121 ft | 354 kts | 302° |
| 2026-05-07 07:08 | 45.87077 | 6.94859 | 25661 ft | 353 kts | 302° |
| 2026-05-07 07:09 | 45.88460 | 6.91965 | 25200 ft | 350 kts | 302° |
| 2026-05-07 07:09 | 45.89834 | 6.89080 | 24716 ft | 349 kts | 302° |
| 2026-05-07 07:09 | 45.91202 | 6.86201 | 24242 ft | 348 kts | 302° |
| 2026-05-07 07:09 | 45.92563 | 6.83333 | 23760 ft | 346 kts | 302° |
| 2026-05-07 07:10 | 45.93914 | 6.80479 | 23269 ft | 345 kts | 302° |
| 2026-05-07 07:10 | 45.95260 | 6.77630 | 22812 ft | 343 kts | 302° |
| 2026-05-07 07:10 | 45.96600 | 6.74792 | 22350 ft | 342 kts | 302° |
| 2026-05-07 07:10 | 45.97925 | 6.71955 | 21900 ft | 340 kts | 302° |
| 2026-05-07 07:11 | 45.99236 | 6.69132 | 21448 ft | 339 kts | 302° |
| 2026-05-07 07:11 | 46.00539 | 6.66313 | 20995 ft | 337 kts | 302° |
| 2026-05-07 07:11 | 46.01834 | 6.63501 | 20557 ft | 336 kts | 302° |
| 2026-05-07 07:11 | 46.03108 | 6.60735 | 20113 ft | 335 kts | 302° |
| 2026-05-07 07:12 | 46.04390 | 6.57952 | 19681 ft | 333 kts | 302° |
| 2026-05-07 07:12 | 46.05670 | 6.55179 | 19252 ft | 332 kts | 302° |
| 2026-05-07 07:12 | 46.06959 | 6.52427 | 18815 ft | 331 kts | 303° |
| 2026-05-07 07:12 | 46.08254 | 6.49686 | 18388 ft | 330 kts | 303° |
| 2026-05-07 07:13 | 46.09548 | 6.46961 | 17965 ft | 328 kts | 303° |
| 2026-05-07 07:13 | 46.10834 | 6.44252 | 17543 ft | 327 kts | 303° |
| 2026-05-07 07:13 | 46.12117 | 6.41542 | 17122 ft | 327 kts | 303° |
| 2026-05-07 07:13 | 46.13392 | 6.38844 | 16706 ft | 325 kts | 303° |
| 2026-05-07 07:14 | 46.14661 | 6.36154 | 16306 ft | 323 kts | 303° |
| 2026-05-07 07:14 | 46.15921 | 6.33478 | 15887 ft | 323 kts | 303° |
| 2026-05-07 07:14 | 46.17173 | 6.30784 | 15442 ft | 323 kts | 300° |
| 2026-05-07 07:14 | 46.17974 | 6.27792 | 15007 ft | 320 kts | 278° |
| 2026-05-07 07:15 | 46.17931 | 6.24571 | 14597 ft | 318 kts | 256° |
| 2026-05-07 07:15 | 46.17108 | 6.21751 | 14338 ft | 304 kts | 237° |
| 2026-05-07 07:15 | 46.15745 | 6.19471 | 13815 ft | 297 kts | 226° |
| 2026-05-07 07:15 | 46.14324 | 6.17381 | 13417 ft | 288 kts | 226° |
| 2026-05-07 07:16 | 46.12921 | 6.15313 | 13033 ft | 289 kts | 226° |
| 2026-05-07 07:16 | 46.11514 | 6.13233 | 12650 ft | 290 kts | 226° |
| 2026-05-07 07:16 | 46.10109 | 6.11149 | 12270 ft | 290 kts | 226° |
| 2026-05-07 07:16 | 46.08698 | 6.09065 | 11876 ft | 291 kts | 225° |
| 2026-05-07 07:17 | 46.07276 | 6.06999 | 11503 ft | 290 kts | 225° |
| 2026-05-07 07:17 | 46.05823 | 6.04986 | 11128 ft | 290 kts | 217° |
| 2026-05-07 07:17 | 46.04011 | 6.03797 | 11011 ft | 289 kts | 189° |
| 2026-05-07 07:17 | 46.02004 | 6.03910 | 11025 ft | 292 kts | 163° |
| 2026-05-07 07:18 | 46.00220 | 6.05295 | 11026 ft | 293 kts | 137° |
| 2026-05-07 07:18 | 45.99045 | 6.07659 | 11026 ft | 294 kts | 111° |
| 2026-05-07 07:18 | 45.98703 | 6.10535 | 11027 ft | 294 kts | 86° |
| 2026-05-07 07:18 | 45.99182 | 6.13377 | 11027 ft | 295 kts | 64° |
| 2026-05-07 07:19 | 46.00296 | 6.15810 | 11025 ft | 295 kts | 50° |
| 2026-05-07 07:19 | 46.01652 | 6.18078 | 11026 ft | 296 kts | 47° |
| 2026-05-07 07:19 | 46.03213 | 6.19928 | 10890 ft | 296 kts | 28° |
| 2026-05-07 07:19 | 46.05130 | 6.20918 | 10639 ft | 293 kts | 12° |
| 2026-05-07 07:20 | 46.07115 | 6.21553 | 10396 ft | 292 kts | 12° |
| 2026-05-07 07:20 | 46.09105 | 6.22165 | 10143 ft | 291 kts | 12° |
| 2026-05-07 07:20 | 46.11083 | 6.22764 | 9925 ft | 290 kts | 12° |
| 2026-05-07 07:20 | 46.13054 | 6.23360 | 9807 ft | 290 kts | 12° |
| 2026-05-07 07:21 | 46.15030 | 6.23960 | 9676 ft | 289 kts | 12° |
| 2026-05-07 07:21 | 46.16995 | 6.24559 | 9552 ft | 288 kts | 12° |
| 2026-05-07 07:21 | 46.18904 | 6.25439 | 9423 ft | 288 kts | 24° |
| 2026-05-07 07:21 | 46.20628 | 6.26906 | 9298 ft | 288 kts | 37° |
| 2026-05-07 07:22 | 46.22100 | 6.28867 | 9174 ft | 288 kts | 46° |
| 2026-05-07 07:22 | 46.23500 | 6.30936 | 9050 ft | 287 kts | 45° |
| 2026-05-07 07:22 | 46.24900 | 6.32993 | 8923 ft | 287 kts | 45° |
| 2026-05-07 07:22 | 46.26300 | 6.35049 | 8796 ft | 286 kts | 45° |
| 2026-05-07 07:23 | 46.27690 | 6.37093 | 8673 ft | 286 kts | 45° |
| 2026-05-07 07:23 | 46.29085 | 6.39144 | 8538 ft | 285 kts | 45° |
| 2026-05-07 07:23 | 46.30472 | 6.41186 | 8423 ft | 284 kts | 45° |
| 2026-05-07 07:23 | 46.31856 | 6.43230 | 8295 ft | 284 kts | 45° |
| 2026-05-07 07:24 | 46.33234 | 6.45270 | 8170 ft | 283 kts | 45° |
| 2026-05-07 07:24 | 46.34589 | 6.47279 | 8036 ft | 279 kts | 45° |
| 2026-05-07 07:24 | 46.35920 | 6.49243 | 7916 ft | 267 kts | 45° |
| 2026-05-07 07:24 | 46.37192 | 6.51124 | 7789 ft | 256 kts | 45° |
| 2026-05-07 07:25 | 46.39615 | 6.54745 | 7537 ft | 248 kts | 46° |
| 2026-05-07 07:25 | 46.40806 | 6.56547 | 7407 ft | 248 kts | 46° |
| 2026-05-07 07:25 | 46.42002 | 6.58332 | 7288 ft | 244 kts | 41° |
| 2026-05-07 07:26 | 46.43435 | 6.59452 | 7153 ft | 230 kts | 9° |
| 2026-05-07 07:26 | 46.44982 | 6.59268 | 7050 ft | 225 kts | 335° |
| 2026-05-07 07:26 | 46.46244 | 6.57965 | 7014 ft | 225 kts | 316° |
| 2026-05-07 07:26 | 46.47321 | 6.56309 | 7008 ft | 225 kts | 302° |
| 2026-05-07 07:27 | 46.47982 | 6.54263 | 7015 ft | 225 kts | 284° |
| 2026-05-07 07:27 | 46.48007 | 6.52014 | 7014 ft | 225 kts | 258° |
| 2026-05-07 07:27 | 46.47761 | 6.50536 | 7018 ft | 233 kts | 255° |
| 2026-05-07 07:27 | 46.47146 | 6.47466 | 7013 ft | 235 kts | 253° |
| 2026-05-07 07:28 | 46.46833 | 6.45964 | 7013 ft | 235 kts | 253° |
| 2026-05-07 07:28 | 46.45752 | 6.43293 | 6979 ft | 236 kts | 226° |
| 2026-05-07 07:28 | 46.44975 | 6.42144 | 6833 ft | 236 kts | 225° |
| 2026-05-07 07:28 | 46.43466 | 6.39931 | 6458 ft | 231 kts | 225° |
| 2026-05-07 07:29 | 46.42712 | 6.38815 | 6255 ft | 229 kts | 226° |
| 2026-05-07 07:29 | 46.41604 | 6.37170 | 5953 ft | 227 kts | 226° |
| 2026-05-07 07:29 | 46.40498 | 6.35531 | 5650 ft | 227 kts | 226° |
| 2026-05-07 07:29 | 46.39392 | 6.33892 | 5352 ft | 228 kts | 226° |
| 2026-05-07 07:30 | 46.38287 | 6.32254 | 5047 ft | 227 kts | 225° |
| 2026-05-07 07:30 | 46.37198 | 6.30643 | 4754 ft | 226 kts | 226° |
| 2026-05-07 07:30 | 46.36088 | 6.29000 | 4446 ft | 225 kts | 225° |
| 2026-05-07 07:30 | 46.35003 | 6.27397 | 4147 ft | 219 kts | 226° |
| 2026-05-07 07:31 | 46.33981 | 6.25887 | 3891 ft | 205 kts | 225° |
| 2026-05-07 07:31 | 46.33025 | 6.24473 | 3610 ft | 189 kts | 225° |
| 2026-05-07 07:31 | 46.32143 | 6.23173 | 3364 ft | 173 kts | 225° |
| 2026-05-07 07:31 | 46.31333 | 6.21978 | 3150 ft | 159 kts | 225° |
| 2026-05-07 07:32 | 46.30594 | 6.20887 | 2941 ft | 147 kts | 225° |
| 2026-05-07 07:32 | 46.29891 | 6.19852 | 2757 ft | 143 kts | 225° |
| 2026-05-07 07:32 | 46.29197 | 6.18830 | 2565 ft | 141 kts | 226° |
| 2026-05-07 07:32 | 46.28514 | 6.17823 | 2379 ft | 140 kts | 226° |
| 2026-05-07 07:33 | 46.27829 | 6.16815 | 2195 ft | 141 kts | 226° |
| 2026-05-07 07:33 | 46.27143 | 6.15808 | 2013 ft | 140 kts | 225° |
| 2026-05-07 07:33 | 46.26463 | 6.14823 | 1836 ft | 140 kts | 225° |
| 2026-05-07 07:33 | 46.25782 | 6.13822 | 1619 ft | 139 kts | 227° |
| 2026-05-07 07:34 | 46.25111 | 6.12812 | 1438 ft | 139 kts | 226° |
| 2026-05-07 07:34 | 46.24467 | 6.11864 | 1372 ft | 112 kts | 225° |
| 2026-05-07 07:34 | 46.24128 | 6.11370 | 1375 ft | 38 kts | 225° |
| 2026-05-07 07:34 | 46.23952 | 6.11110 | 1378 ft | 35 kts | 223° |
| 2026-05-07 07:35 | 46.23787 | 6.11081 | 1381 ft | 17 kts | 171° |
| 2026-05-07 07:35 | 46.23724 | 6.11088 | 1386 ft | 5 kts | 187° |
| 2026-05-07 07:35 | 46.23701 | 6.11070 | 1388 ft | 11 kts | 218° |
| 2026-05-07 07:35 | 46.23632 | 6.10972 | 1390 ft | 14 kts | 225° |
| 2026-05-07 07:36 | 46.23562 | 6.10871 | 1386 ft | 14 kts | 226° |
| 2026-05-07 07:36 | 46.23494 | 6.10770 | 1391 ft | 14 kts | 225° |
| 2026-05-07 07:36 | 46.23425 | 6.10669 | 1395 ft | 14 kts | 225° |
| 2026-05-07 07:36 | 46.23355 | 6.10578 | 1392 ft | 13 kts | 226° |
| 2026-05-07 07:37 | 46.23292 | 6.10485 | 1395 ft | 12 kts | 225° |
| 2026-05-07 07:37 | 46.23237 | 6.10403 | 1393 ft | 10 kts | 225° |
| 2026-05-07 07:37 | 46.23190 | 6.10335 | 1393 ft | 9 kts | 225° |
| 2026-05-07 07:37 | 46.23152 | 6.10280 | 1394 ft | 6 kts | 227° |
| 2026-05-07 07:38 | 46.23118 | 6.10266 | 1396 ft | 5 kts | 179° |
| 2026-05-07 07:38 | 46.23081 | 6.10265 | 1393 ft | 5 kts | 180° |
| 2026-05-07 07:38 | 46.23051 | 6.10265 | 1401 ft | 1 kts | 181° |
| 2026-05-07 07:38 | 46.23048 | 6.10265 | 1393 ft | 0 kts | 181° |